sensor_id;sensor_type;location;lat;lon;timestamp;P1;durP1;ratioP1;P2;durP2;ratioP2
30613;SDS011;17381;51.690;5.270;2023-02-13T00:31:43;38.40;;;19.13;;
30613;SDS011;17381;51.690;5.270;2023-02-13T00:35:19;37.42;;;18.73;;
30613;SDS011;17381;51.690;5.270;2023-02-13T00:38:26;39.10;;;19.48;;
30613;SDS011;17381;51.690;5.270;2023-02-13T00:41:50;35.35;;;18.55;;
30613;SDS011;17381;51.690;5.270;2023-02-13T00:44:34;37.00;;;18.02;;
30613;SDS011;17381;51.690;5.270;2023-02-13T00:47:54;37.30;;;18.48;;
30613;SDS011;17381;51.690;5.270;2023-02-13T01:05:01;37.03;;;18.52;;
30613;SDS011;17381;51.690;5.270;2023-02-13T01:08:20;36.30;;;18.85;;
30613;SDS011;17381;51.690;5.270;2023-02-13T01:12:11;39.05;;;19.23;;
30613;SDS011;17381;51.690;5.270;2023-02-13T01:19:09;41.03;;;21.33;;
30613;SDS011;17381;51.690;5.270;2023-02-13T01:25:54;38.65;;;19.95;;
30613;SDS011;17381;51.690;5.270;2023-02-13T01:47:52;35.85;;;19.20;;
30613;SDS011;17381;51.690;5.270;2023-02-13T02:10:16;37.58;;;18.85;;
30613;SDS011;17381;51.690;5.270;2023-02-13T02:14:00;36.75;;;19.67;;
30613;SDS011;17381;51.690;5.270;2023-02-13T03:01:37;36.78;;;19.30;;
30613;SDS011;17381;51.690;5.270;2023-02-13T03:05:01;36.15;;;18.50;;
30613;SDS011;17381;51.690;5.270;2023-02-13T03:08:42;38.60;;;18.77;;
30613;SDS011;17381;51.690;5.270;2023-02-13T03:38:39;41.08;;;21.33;;
30613;SDS011;17381;51.690;5.270;2023-02-13T03:42:17;40.50;;;21.05;;
30613;SDS011;17381;51.690;5.270;2023-02-13T03:49:21;36.45;;;19.45;;
30613;SDS011;17381;51.690;5.270;2023-02-13T04:00:27;37.53;;;19.75;;
30613;SDS011;17381;51.690;5.270;2023-02-13T04:07:22;36.80;;;19.23;;
30613;SDS011;17381;51.690;5.270;2023-02-13T04:14:18;37.08;;;18.55;;
30613;SDS011;17381;51.690;5.270;2023-02-13T04:24:51;37.42;;;19.67;;
30613;SDS011;17381;51.690;5.270;2023-02-13T04:35:18;34.70;;;17.98;;
30613;SDS011;17381;51.690;5.270;2023-02-13T04:38:15;39.03;;;20.73;;
30613;SDS011;17381;51.690;5.270;2023-02-13T04:49:01;32.60;;;18.27;;
30613;SDS011;17381;51.690;5.270;2023-02-13T05:07:09;38.88;;;19.75;;
30613;SDS011;17381;51.690;5.270;2023-02-13T05:28:37;37.10;;;18.98;;
30613;SDS011;17381;51.690;5.270;2023-02-13T05:32:06;35.08;;;19.35;;
30613;SDS011;17381;51.690;5.270;2023-02-13T05:38:52;42.72;;;21.27;;
30613;SDS011;17381;51.690;5.270;2023-02-13T05:56:56;40.42;;;20.05;;
30613;SDS011;17381;51.690;5.270;2023-02-13T06:34:55;36.08;;;18.67;;
30613;SDS011;17381;51.690;5.270;2023-02-13T06:37:42;34.47;;;18.92;;
30613;SDS011;17381;51.690;5.270;2023-02-13T06:41:16;34.88;;;18.33;;
30613;SDS011;17381;51.690;5.270;2023-02-13T06:44:16;33.40;;;17.92;;
30613;SDS011;17381;51.690;5.270;2023-02-13T06:54:27;34.83;;;18.33;;
30613;SDS011;17381;51.690;5.270;2023-02-13T07:04:59;35.40;;;19.13;;
30613;SDS011;17381;51.690;5.270;2023-02-13T07:08:24;36.67;;;19.63;;
30613;SDS011;17381;51.690;5.270;2023-02-13T07:19:12;34.47;;;17.52;;
30613;SDS011;17381;51.690;5.270;2023-02-13T07:26:49;36.60;;;18.55;;
30613;SDS011;17381;51.690;5.270;2023-02-13T07:30:02;37.45;;;19.58;;
30613;SDS011;17381;51.690;5.270;2023-02-13T07:40:40;38.97;;;20.23;;
30613;SDS011;17381;51.690;5.270;2023-02-13T07:44:10;38.33;;;19.17;;
30613;SDS011;17381;51.690;5.270;2023-02-13T08:25:05;33.42;;;18.13;;
30613;SDS011;17381;51.690;5.270;2023-02-13T08:28:44;33.90;;;18.13;;
30613;SDS011;17381;51.690;5.270;2023-02-13T08:32:09;35.13;;;18.58;;
30613;SDS011;17381;51.690;5.270;2023-02-13T08:46:21;38.22;;;20.70;;
30613;SDS011;17381;51.690;5.270;2023-02-13T08:49:35;35.50;;;20.05;;
30613;SDS011;17381;51.690;5.270;2023-02-13T08:52:56;39.17;;;20.67;;
30613;SDS011;17381;51.690;5.270;2023-02-13T09:03:54;38.42;;;20.65;;
30613;SDS011;17381;51.690;5.270;2023-02-13T09:33:55;34.72;;;18.33;;
30613;SDS011;17381;51.690;5.270;2023-02-13T09:44:35;34.30;;;20.05;;
30613;SDS011;17381;51.690;5.270;2023-02-13T09:51:38;33.70;;;19.63;;
30613;SDS011;17381;51.690;5.270;2023-02-13T10:15:47;23.97;;;15.20;;
30613;SDS011;17381;51.690;5.270;2023-02-13T10:18:44;20.77;;;14.00;;
30613;SDS011;17381;51.690;5.270;2023-02-13T10:21:20;26.60;;;16.55;;
30613;SDS011;17381;51.690;5.270;2023-02-13T10:23:58;25.42;;;15.55;;
30613;SDS011;17381;51.690;5.270;2023-02-13T10:26:48;26.35;;;15.68;;
30613;SDS011;17381;51.690;5.270;2023-02-13T10:29:37;23.75;;;15.18;;
30613;SDS011;17381;51.690;5.270;2023-02-13T10:38:15;24.67;;;15.00;;
30613;SDS011;17381;51.690;5.270;2023-02-13T10:40:59;24.55;;;15.02;;
30613;SDS011;17381;51.690;5.270;2023-02-13T10:46:38;24.35;;;14.32;;
30613;SDS011;17381;51.690;5.270;2023-02-13T10:51:59;20.75;;;13.98;;
30613;SDS011;17381;51.690;5.270;2023-02-13T11:01:05;20.73;;;13.35;;
30613;SDS011;17381;51.690;5.270;2023-02-13T11:03:39;21.38;;;13.68;;
30613;SDS011;17381;51.690;5.270;2023-02-13T11:06:11;18.25;;;11.90;;
30613;SDS011;17381;51.690;5.270;2023-02-13T11:08:46;20.95;;;13.52;;
30613;SDS011;17381;51.690;5.270;2023-02-13T11:14:46;22.35;;;13.35;;
30613;SDS011;17381;51.690;5.270;2023-02-13T11:17:39;20.73;;;12.43;;
30613;SDS011;17381;51.690;5.270;2023-02-13T11:23:16;20.98;;;12.43;;
30613;SDS011;17381;51.690;5.270;2023-02-13T11:25:59;19.38;;;11.95;;
30613;SDS011;17381;51.690;5.270;2023-02-13T11:28:33;16.17;;;11.15;;
30613;SDS011;17381;51.690;5.270;2023-02-13T11:31:18;19.73;;;11.88;;
30613;SDS011;17381;51.690;5.270;2023-02-13T11:33:56;17.23;;;11.23;;
30613;SDS011;17381;51.690;5.270;2023-02-13T11:36:36;18.17;;;11.82;;
30613;SDS011;17381;51.690;5.270;2023-02-13T11:39:21;16.40;;;11.30;;
30613;SDS011;17381;51.690;5.270;2023-02-13T11:41:50;18.38;;;11.52;;
30613;SDS011;17381;51.690;5.270;2023-02-13T11:46:58;19.15;;;11.45;;
30613;SDS011;17381;51.690;5.270;2023-02-13T11:49:29;17.88;;;11.32;;
30613;SDS011;17381;51.690;5.270;2023-02-13T11:54:54;16.65;;;10.43;;
30613;SDS011;17381;51.690;5.270;2023-02-13T11:57:35;16.65;;;10.30;;
30613;SDS011;17381;51.690;5.270;2023-02-13T12:00:31;16.50;;;10.38;;
30613;SDS011;17381;51.690;5.270;2023-02-13T12:08:41;13.98;;;9.02;;
30613;SDS011;17381;51.690;5.270;2023-02-13T12:11:45;14.70;;;9.50;;
30613;SDS011;17381;51.690;5.270;2023-02-13T12:14:24;14.88;;;9.50;;
30613;SDS011;17381;51.690;5.270;2023-02-13T12:17:03;14.10;;;9.50;;
30613;SDS011;17381;51.690;5.270;2023-02-13T12:19:48;17.55;;;10.52;;
30613;SDS011;17381;51.690;5.270;2023-02-13T12:22:36;15.43;;;10.48;;
30613;SDS011;17381;51.690;5.270;2023-02-13T12:36:45;13.32;;;8.65;;
30613;SDS011;17381;51.690;5.270;2023-02-13T12:42:54;12.73;;;8.18;;
30613;SDS011;17381;51.690;5.270;2023-02-13T12:45:31;11.95;;;7.63;;
30613;SDS011;17381;51.690;5.270;2023-02-13T12:51:53;13.35;;;8.60;;
30613;SDS011;17381;51.690;5.270;2023-02-13T13:06:49;16.42;;;8.75;;
30613;SDS011;17381;51.690;5.270;2023-02-13T13:09:40;13.10;;;8.70;;
30613;SDS011;17381;51.690;5.270;2023-02-13T13:12:25;12.70;;;8.10;;
30613;SDS011;17381;51.690;5.270;2023-02-13T13:15:09;11.77;;;8.18;;
30613;SDS011;17381;51.690;5.270;2023-02-13T13:18:12;11.20;;;7.47;;
30613;SDS011;17381;51.690;5.270;2023-02-13T13:24:08;12.93;;;7.38;;
30613;SDS011;17381;51.690;5.270;2023-02-13T13:26:56;11.75;;;7.85;;
30613;SDS011;17381;51.690;5.270;2023-02-13T13:29:41;11.65;;;7.75;;
30613;SDS011;17381;51.690;5.270;2023-02-13T13:32:19;13.35;;;8.02;;
30613;SDS011;17381;51.690;5.270;2023-02-13T13:35:03;12.90;;;8.18;;
30613;SDS011;17381;51.690;5.270;2023-02-13T13:40:50;11.75;;;7.45;;
30613;SDS011;17381;51.690;5.270;2023-02-13T13:46:16;11.10;;;7.07;;
30613;SDS011;17381;51.690;5.270;2023-02-13T13:49:25;13.38;;;7.82;;
30613;SDS011;17381;51.690;5.270;2023-02-13T13:52:39;11.23;;;7.20;;
30613;SDS011;17381;51.690;5.270;2023-02-13T13:56:09;10.77;;;7.40;;
30613;SDS011;17381;51.690;5.270;2023-02-13T13:59:02;14.45;;;8.57;;
30613;SDS011;17381;51.690;5.270;2023-02-13T14:13:52;12.73;;;7.43;;
30613;SDS011;17381;51.690;5.270;2023-02-13T14:17:10;12.90;;;8.30;;
30613;SDS011;17381;51.690;5.270;2023-02-13T14:26:55;11.57;;;7.63;;
30613;SDS011;17381;51.690;5.270;2023-02-13T14:33:41;15.40;;;8.93;;
30613;SDS011;17381;51.690;5.270;2023-02-13T14:36:49;14.20;;;8.00;;
30613;SDS011;17381;51.690;5.270;2023-02-13T14:43:36;12.32;;;7.47;;
30613;SDS011;17381;51.690;5.270;2023-02-13T14:46:44;13.68;;;8.90;;
30613;SDS011;17381;51.690;5.270;2023-02-13T14:50:05;13.95;;;8.05;;
30613;SDS011;17381;51.690;5.270;2023-02-13T14:53:01;14.25;;;8.18;;
30613;SDS011;17381;51.690;5.270;2023-02-13T15:03:00;12.55;;;7.60;;
30613;SDS011;17381;51.690;5.270;2023-02-13T15:12:39;13.25;;;8.18;;
30613;SDS011;17381;51.690;5.270;2023-02-13T15:16:01;11.52;;;7.25;;
30613;SDS011;17381;51.690;5.270;2023-02-13T15:21:37;12.60;;;7.45;;
30613;SDS011;17381;51.690;5.270;2023-02-13T15:27:39;12.77;;;7.80;;
30613;SDS011;17381;51.690;5.270;2023-02-13T15:33:22;12.20;;;7.60;;
30613;SDS011;17381;51.690;5.270;2023-02-13T15:36:47;14.82;;;8.45;;
30613;SDS011;17381;51.690;5.270;2023-02-13T15:39:43;13.55;;;8.02;;
30613;SDS011;17381;51.690;5.270;2023-02-13T15:55:29;12.38;;;7.80;;
30613;SDS011;17381;51.690;5.270;2023-02-13T16:06:53;15.15;;;8.98;;
30613;SDS011;17381;51.690;5.270;2023-02-13T16:10:22;12.27;;;7.43;;
30613;SDS011;17381;51.690;5.270;2023-02-13T16:13:26;13.55;;;8.43;;
30613;SDS011;17381;51.690;5.270;2023-02-13T16:17:16;15.48;;;8.85;;
30613;SDS011;17381;51.690;5.270;2023-02-13T16:20:02;14.02;;;8.63;;
30613;SDS011;17381;51.690;5.270;2023-02-13T16:23:00;15.48;;;8.27;;
30613;SDS011;17381;51.690;5.270;2023-02-13T16:26:02;14.85;;;8.60;;
30613;SDS011;17381;51.690;5.270;2023-02-13T16:29:08;15.25;;;9.07;;
30613;SDS011;17381;51.690;5.270;2023-02-13T16:32:19;13.90;;;8.55;;
30613;SDS011;17381;51.690;5.270;2023-02-13T16:35:32;15.82;;;8.88;;
30613;SDS011;17381;51.690;5.270;2023-02-13T16:41:37;14.55;;;8.77;;
30613;SDS011;17381;51.690;5.270;2023-02-13T16:52:22;18.50;;;9.68;;
30613;SDS011;17381;51.690;5.270;2023-02-13T17:01:38;17.88;;;9.75;;
30613;SDS011;17381;51.690;5.270;2023-02-13T17:04:23;15.98;;;10.10;;
30613;SDS011;17381;51.690;5.270;2023-02-13T17:07:01;16.55;;;9.85;;
30613;SDS011;17381;51.690;5.270;2023-02-13T17:09:41;17.85;;;9.98;;
30613;SDS011;17381;51.690;5.270;2023-02-13T17:12:14;18.73;;;10.50;;
30613;SDS011;17381;51.690;5.270;2023-02-13T17:14:45;17.95;;;10.35;;
30613;SDS011;17381;51.690;5.270;2023-02-13T17:17:15;19.23;;;10.20;;
30613;SDS011;17381;51.690;5.270;2023-02-13T17:19:48;17.70;;;11.00;;
30613;SDS011;17381;51.690;5.270;2023-02-13T17:22:17;17.33;;;10.60;;
30613;SDS011;17381;51.690;5.270;2023-02-13T17:24:48;19.50;;;11.20;;
30613;SDS011;17381;51.690;5.270;2023-02-13T17:27:26;17.80;;;11.07;;
30613;SDS011;17381;51.690;5.270;2023-02-13T17:29:55;17.95;;;10.68;;
30613;SDS011;17381;51.690;5.270;2023-02-13T17:32:30;17.13;;;10.57;;
30613;SDS011;17381;51.690;5.270;2023-02-13T17:35:01;18.45;;;10.60;;
30613;SDS011;17381;51.690;5.270;2023-02-13T17:37:41;19.35;;;12.10;;
30613;SDS011;17381;51.690;5.270;2023-02-13T17:40:18;20.20;;;11.98;;
30613;SDS011;17381;51.690;5.270;2023-02-13T17:42:53;19.08;;;10.80;;
30613;SDS011;17381;51.690;5.270;2023-02-13T17:45:27;21.90;;;11.88;;
30613;SDS011;17381;51.690;5.270;2023-02-13T17:48:03;19.27;;;11.40;;
30613;SDS011;17381;51.690;5.270;2023-02-13T17:50:37;20.88;;;11.73;;
30613;SDS011;17381;51.690;5.270;2023-02-13T17:56:23;18.33;;;10.60;;
30613;SDS011;17381;51.690;5.270;2023-02-13T17:58:52;20.73;;;11.75;;
30613;SDS011;17381;51.690;5.270;2023-02-13T18:01:24;20.88;;;11.77;;
30613;SDS011;17381;51.690;5.270;2023-02-13T18:03:59;20.45;;;11.73;;
30613;SDS011;17381;51.690;5.270;2023-02-13T18:06:37;20.40;;;12.05;;
30613;SDS011;17381;51.690;5.270;2023-02-13T18:09:09;18.80;;;12.48;;
30613;SDS011;17381;51.690;5.270;2023-02-13T18:11:38;19.40;;;11.90;;
30613;SDS011;17381;51.690;5.270;2023-02-13T18:14:19;21.15;;;13.32;;
30613;SDS011;17381;51.690;5.270;2023-02-13T18:16:53;22.35;;;12.48;;
30613;SDS011;17381;51.690;5.270;2023-02-13T18:19:51;23.30;;;12.43;;
30613;SDS011;17381;51.690;5.270;2023-02-13T18:22:39;22.65;;;12.90;;
30613;SDS011;17381;51.690;5.270;2023-02-13T18:25:47;20.35;;;12.30;;
30613;SDS011;17381;51.690;5.270;2023-02-13T18:28:33;22.55;;;12.77;;
30613;SDS011;17381;51.690;5.270;2023-02-13T18:31:32;22.00;;;12.15;;
30613;SDS011;17381;51.690;5.270;2023-02-13T18:34:35;22.17;;;12.93;;
30613;SDS011;17381;51.690;5.270;2023-02-13T18:37:40;20.23;;;12.70;;
30613;SDS011;17381;51.690;5.270;2023-02-13T18:40:39;24.67;;;12.93;;
30613;SDS011;17381;51.690;5.270;2023-02-13T18:43:20;23.58;;;13.38;;
30613;SDS011;17381;51.690;5.270;2023-02-13T18:45:49;20.25;;;12.13;;
30613;SDS011;17381;51.690;5.270;2023-02-13T19:03:22;23.20;;;13.50;;
30613;SDS011;17381;51.690;5.270;2023-02-13T19:06:11;24.92;;;13.38;;
30613;SDS011;17381;51.690;5.270;2023-02-13T19:12:35;24.63;;;13.95;;
30613;SDS011;17381;51.690;5.270;2023-02-13T19:15:04;23.35;;;13.98;;
30613;SDS011;17381;51.690;5.270;2023-02-13T19:17:34;26.33;;;14.25;;
30613;SDS011;17381;51.690;5.270;2023-02-13T19:20:12;26.30;;;15.27;;
30613;SDS011;17381;51.690;5.270;2023-02-13T19:22:44;25.15;;;14.95;;
30613;SDS011;17381;51.690;5.270;2023-02-13T19:25:19;26.20;;;15.25;;
30613;SDS011;17381;51.690;5.270;2023-02-13T19:27:51;24.23;;;15.02;;
30613;SDS011;17381;51.690;5.270;2023-02-13T19:30:34;28.70;;;15.40;;
30613;SDS011;17381;51.690;5.270;2023-02-13T19:33:05;30.30;;;16.80;;
30613;SDS011;17381;51.690;5.270;2023-02-13T19:35:40;20.52;;;12.07;;
30613;SDS011;17381;51.690;5.270;2023-02-13T19:38:06;27.80;;;16.02;;
30613;SDS011;17381;51.690;5.270;2023-02-13T19:40:38;26.58;;;14.15;;
30613;SDS011;17381;51.690;5.270;2023-02-13T19:43:10;27.23;;;14.98;;
30613;SDS011;17381;51.690;5.270;2023-02-13T19:45:50;26.25;;;16.05;;
30613;SDS011;17381;51.690;5.270;2023-02-13T19:49:02;27.02;;;15.95;;
30613;SDS011;17381;51.690;5.270;2023-02-13T19:51:52;30.90;;;17.52;;
30613;SDS011;17381;51.690;5.270;2023-02-13T19:54:24;27.98;;;16.05;;
30613;SDS011;17381;51.690;5.270;2023-02-13T19:56:59;26.00;;;15.85;;
30613;SDS011;17381;51.690;5.270;2023-02-13T19:59:30;29.08;;;16.67;;
30613;SDS011;17381;51.690;5.270;2023-02-13T20:02:07;27.50;;;15.75;;
30613;SDS011;17381;51.690;5.270;2023-02-13T20:04:47;28.42;;;16.80;;
30613;SDS011;17381;51.690;5.270;2023-02-13T20:07:57;27.40;;;15.52;;
30613;SDS011;17381;51.690;5.270;2023-02-13T20:10:23;27.55;;;15.98;;
30613;SDS011;17381;51.690;5.270;2023-02-13T20:12:57;29.30;;;17.37;;
30613;SDS011;17381;51.690;5.270;2023-02-13T20:15:28;28.77;;;16.52;;
30613;SDS011;17381;51.690;5.270;2023-02-13T20:18:01;30.55;;;17.52;;
30613;SDS011;17381;51.690;5.270;2023-02-13T20:21:16;27.02;;;15.55;;
30613;SDS011;17381;51.690;5.270;2023-02-13T20:23:54;26.75;;;15.75;;
30613;SDS011;17381;51.690;5.270;2023-02-13T20:26:23;30.58;;;15.95;;
30613;SDS011;17381;51.690;5.270;2023-02-13T20:28:54;27.92;;;16.00;;
30613;SDS011;17381;51.690;5.270;2023-02-13T20:31:28;30.80;;;16.55;;
30613;SDS011;17381;51.690;5.270;2023-02-13T20:34:04;25.88;;;14.25;;
30613;SDS011;17381;51.690;5.270;2023-02-13T20:36:34;29.15;;;14.93;;
30613;SDS011;17381;51.690;5.270;2023-02-13T20:39:08;30.50;;;16.75;;
30613;SDS011;17381;51.690;5.270;2023-02-13T20:41:52;27.13;;;15.45;;
30613;SDS011;17381;51.690;5.270;2023-02-13T20:45:00;31.00;;;15.98;;
30613;SDS011;17381;51.690;5.270;2023-02-13T20:47:29;24.83;;;14.88;;
30613;SDS011;17381;51.690;5.270;2023-02-13T20:50:01;27.10;;;15.38;;
30613;SDS011;17381;51.690;5.270;2023-02-13T20:52:33;29.30;;;16.33;;
30613;SDS011;17381;51.690;5.270;2023-02-13T20:55:06;31.13;;;17.50;;
30613;SDS011;17381;51.690;5.270;2023-02-13T20:57:35;28.25;;;15.25;;
30613;SDS011;17381;51.690;5.270;2023-02-13T21:00:11;29.35;;;16.75;;
30613;SDS011;17381;51.690;5.270;2023-02-13T21:02:38;28.38;;;15.18;;
30613;SDS011;17381;51.690;5.270;2023-02-13T21:05:28;27.58;;;16.05;;
30613;SDS011;17381;51.690;5.270;2023-02-13T21:07:54;28.33;;;15.43;;
30613;SDS011;17381;51.690;5.270;2023-02-13T21:10:23;25.52;;;14.35;;
30613;SDS011;17381;51.690;5.270;2023-02-13T21:12:59;27.83;;;15.10;;
30613;SDS011;17381;51.690;5.270;2023-02-13T21:15:38;24.92;;;14.38;;
30613;SDS011;17381;51.690;5.270;2023-02-13T21:18:19;27.83;;;15.55;;
30613;SDS011;17381;51.690;5.270;2023-02-13T21:21:04;27.80;;;14.43;;
30613;SDS011;17381;51.690;5.270;2023-02-13T21:23:56;23.43;;;13.77;;
30613;SDS011;17381;51.690;5.270;2023-02-13T21:26:33;23.58;;;12.90;;
30613;SDS011;17381;51.690;5.270;2023-02-13T21:29:02;22.55;;;13.48;;
30613;SDS011;17381;51.690;5.270;2023-02-13T21:31:43;23.27;;;13.02;;
30613;SDS011;17381;51.690;5.270;2023-02-13T21:34:28;22.90;;;13.25;;
30613;SDS011;17381;51.690;5.270;2023-02-13T21:37:15;22.38;;;13.55;;
30613;SDS011;17381;51.690;5.270;2023-02-13T21:39:55;27.88;;;13.93;;
30613;SDS011;17381;51.690;5.270;2023-02-13T21:45:40;24.35;;;13.57;;
30613;SDS011;17381;51.690;5.270;2023-02-13T21:48:09;24.05;;;13.65;;
30613;SDS011;17381;51.690;5.270;2023-02-13T21:50:55;26.80;;;14.82;;
30613;SDS011;17381;51.690;5.270;2023-02-13T21:53:29;23.60;;;13.20;;
30613;SDS011;17381;51.690;5.270;2023-02-13T21:56:03;22.70;;;13.32;;
30613;SDS011;17381;51.690;5.270;2023-02-13T21:58:37;26.17;;;14.00;;
30613;SDS011;17381;51.690;5.270;2023-02-13T22:01:20;27.55;;;14.90;;
30613;SDS011;17381;51.690;5.270;2023-02-13T22:03:53;23.75;;;14.20;;
30613;SDS011;17381;51.690;5.270;2023-02-13T22:06:28;25.73;;;14.75;;
30613;SDS011;17381;51.690;5.270;2023-02-13T22:08:56;24.13;;;14.38;;
30613;SDS011;17381;51.690;5.270;2023-02-13T22:11:48;23.02;;;13.60;;
30613;SDS011;17381;51.690;5.270;2023-02-13T22:14:23;22.63;;;13.63;;
30613;SDS011;17381;51.690;5.270;2023-02-13T22:17:20;24.42;;;14.13;;
30613;SDS011;17381;51.690;5.270;2023-02-13T22:19:54;26.17;;;14.77;;
30613;SDS011;17381;51.690;5.270;2023-02-13T22:22:25;24.83;;;14.88;;
30613;SDS011;17381;51.690;5.270;2023-02-13T22:25:02;23.67;;;14.82;;
30613;SDS011;17381;51.690;5.270;2023-02-13T22:27:37;27.30;;;15.07;;
30613;SDS011;17381;51.690;5.270;2023-02-13T22:30:31;25.48;;;15.07;;
30613;SDS011;17381;51.690;5.270;2023-02-13T22:33:12;24.38;;;14.00;;
30613;SDS011;17381;51.690;5.270;2023-02-13T22:35:53;22.90;;;13.32;;
30613;SDS011;17381;51.690;5.270;2023-02-13T22:38:35;24.52;;;14.23;;
30613;SDS011;17381;51.690;5.270;2023-02-13T22:41:09;30.73;;;16.75;;
30613;SDS011;17381;51.690;5.270;2023-02-13T22:43:44;28.77;;;16.45;;
30613;SDS011;17381;51.690;5.270;2023-02-13T22:50:25;28.10;;;16.08;;
30613;SDS011;17381;51.690;5.270;2023-02-13T23:01:31;21.80;;;13.65;;
30613;SDS011;17381;51.690;5.270;2023-02-13T23:04:21;21.65;;;14.15;;
30613;SDS011;17381;51.690;5.270;2023-02-13T23:07:17;19.83;;;11.77;;
30613;SDS011;17381;51.690;5.270;2023-02-13T23:09:49;18.88;;;11.45;;
30613;SDS011;17381;51.690;5.270;2023-02-13T23:12:18;19.02;;;12.15;;
30613;SDS011;17381;51.690;5.270;2023-02-13T23:15:10;17.35;;;11.23;;
30613;SDS011;17381;51.690;5.270;2023-02-13T23:17:45;21.55;;;12.30;;
30613;SDS011;17381;51.690;5.270;2023-02-13T23:20:40;17.95;;;11.48;;
30613;SDS011;17381;51.690;5.270;2023-02-13T23:23:12;16.52;;;10.38;;
30613;SDS011;17381;51.690;5.270;2023-02-13T23:25:41;18.63;;;10.93;;
30613;SDS011;17381;51.690;5.270;2023-02-13T23:28:16;18.95;;;11.00;;
30613;SDS011;17381;51.690;5.270;2023-02-13T23:30:44;18.65;;;11.05;;
30613;SDS011;17381;51.690;5.270;2023-02-13T23:33:17;15.38;;;9.88;;
30613;SDS011;17381;51.690;5.270;2023-02-13T23:35:53;14.98;;;8.75;;
30613;SDS011;17381;51.690;5.270;2023-02-13T23:38:22;15.75;;;9.10;;
30613;SDS011;17381;51.690;5.270;2023-02-13T23:40:48;18.63;;;10.13;;
30613;SDS011;17381;51.690;5.270;2023-02-13T23:43:16;18.80;;;10.32;;
30613;SDS011;17381;51.690;5.270;2023-02-13T23:45:48;17.00;;;10.23;;
30613;SDS011;17381;51.690;5.270;2023-02-13T23:48:17;18.25;;;10.10;;
30613;SDS011;17381;51.690;5.270;2023-02-13T23:50:55;18.35;;;10.20;;
30613;SDS011;17381;51.690;5.270;2023-02-13T23:53:20;15.27;;;9.85;;
30613;SDS011;17381;51.690;5.270;2023-02-13T23:55:53;15.82;;;9.68;;
30613;SDS011;17381;51.690;5.270;2023-02-13T23:58:19;15.75;;;9.75;;
